sensor_id;sensor_type;location;lat;lon;timestamp;temperature;humidity
54124;DHT22;55741;53.252;5.788;2023-08-31T00:00:50;12.00;99.90
54124;DHT22;55741;53.252;5.788;2023-08-31T00:03:19;12.00;99.90
54124;DHT22;55741;53.252;5.788;2023-08-31T00:05:45;12.00;99.90
54124;DHT22;55741;53.252;5.788;2023-08-31T00:08:11;11.90;99.90
54124;DHT22;55741;53.252;5.788;2023-08-31T00:10:55;11.90;99.90
54124;DHT22;55741;53.252;5.788;2023-08-31T00:13:21;11.90;99.90
54124;DHT22;55741;53.252;5.788;2023-08-31T00:15:47;11.90;99.90
54124;DHT22;55741;53.252;5.788;2023-08-31T00:18:13;11.80;99.90
54124;DHT22;55741;53.252;5.788;2023-08-31T00:20:42;11.80;99.90
54124;DHT22;55741;53.252;5.788;2023-08-31T00:23:08;11.80;99.90
54124;DHT22;55741;53.252;5.788;2023-08-31T00:25:33;11.80;99.90
54124;DHT22;55741;53.252;5.788;2023-08-31T00:27:59;11.70;99.90
54124;DHT22;55741;53.252;5.788;2023-08-31T00:30:33;11.70;99.90
54124;DHT22;55741;53.252;5.788;2023-08-31T00:32:58;11.70;99.90
54124;DHT22;55741;53.252;5.788;2023-08-31T00:35:27;11.70;99.90
54124;DHT22;55741;53.252;5.788;2023-08-31T00:37:54;11.70;99.90
54124;DHT22;55741;53.252;5.788;2023-08-31T00:40:26;11.70;99.90
54124;DHT22;55741;53.252;5.788;2023-08-31T00:42:56;11.70;99.90
54124;DHT22;55741;53.252;5.788;2023-08-31T00:45:22;11.70;99.90
54124;DHT22;55741;53.252;5.788;2023-08-31T00:47:48;11.70;99.90
54124;DHT22;55741;53.252;5.788;2023-08-31T00:50:14;11.70;99.90
54124;DHT22;55741;53.252;5.788;2023-08-31T00:52:42;11.70;99.90
54124;DHT22;55741;53.252;5.788;2023-08-31T00:55:10;11.70;99.90
54124;DHT22;55741;53.252;5.788;2023-08-31T00:57:35;11.70;99.90
54124;DHT22;55741;53.252;5.788;2023-08-31T01:00:02;11.70;99.90
54124;DHT22;55741;53.252;5.788;2023-08-31T01:02:34;11.60;99.90
54124;DHT22;55741;53.252;5.788;2023-08-31T01:07:31;11.60;99.90
54124;DHT22;55741;53.252;5.788;2023-08-31T01:12:36;11.60;99.90
54124;DHT22;55741;53.252;5.788;2023-08-31T01:15:09;11.60;99.90
54124;DHT22;55741;53.252;5.788;2023-08-31T01:17:56;11.60;99.90
54124;DHT22;55741;53.252;5.788;2023-08-31T01:20:31;11.60;99.90
54124;DHT22;55741;53.252;5.788;2023-08-31T01:22:59;11.60;99.90
54124;DHT22;55741;53.252;5.788;2023-08-31T01:25:26;11.60;99.90
54124;DHT22;55741;53.252;5.788;2023-08-31T01:27:51;11.60;99.90
54124;DHT22;55741;53.252;5.788;2023-08-31T01:30:17;11.60;99.90
54124;DHT22;55741;53.252;5.788;2023-08-31T01:32:43;11.60;99.90
54124;DHT22;55741;53.252;5.788;2023-08-31T01:35:10;11.60;99.90
54124;DHT22;55741;53.252;5.788;2023-08-31T01:40:30;11.70;99.90
54124;DHT22;55741;53.252;5.788;2023-08-31T01:42:58;11.70;99.90
54124;DHT22;55741;53.252;5.788;2023-08-31T01:45:24;11.70;99.90
54124;DHT22;55741;53.252;5.788;2023-08-31T01:47:50;11.70;99.90
54124;DHT22;55741;53.252;5.788;2023-08-31T01:50:16;11.70;99.90
54124;DHT22;55741;53.252;5.788;2023-08-31T01:52:43;11.70;99.90
54124;DHT22;55741;53.252;5.788;2023-08-31T01:55:09;11.70;99.90
54124;DHT22;55741;53.252;5.788;2023-08-31T01:57:35;11.70;99.90
54124;DHT22;55741;53.252;5.788;2023-08-31T02:00:01;11.70;99.90
54124;DHT22;55741;53.252;5.788;2023-08-31T02:02:26;11.70;99.90
54124;DHT22;55741;53.252;5.788;2023-08-31T02:04:52;11.70;99.90
54124;DHT22;55741;53.252;5.788;2023-08-31T02:07:18;11.70;99.90
54124;DHT22;55741;53.252;5.788;2023-08-31T02:09:44;11.80;99.90
54124;DHT22;55741;53.252;5.788;2023-08-31T02:12:10;11.80;99.90
54124;DHT22;55741;53.252;5.788;2023-08-31T02:14:36;11.80;99.90
54124;DHT22;55741;53.252;5.788;2023-08-31T02:17:02;11.80;99.90
54124;DHT22;55741;53.252;5.788;2023-08-31T02:19:28;11.80;99.90
54124;DHT22;55741;53.252;5.788;2023-08-31T02:21:54;11.90;99.90
54124;DHT22;55741;53.252;5.788;2023-08-31T02:24:19;11.90;99.90
54124;DHT22;55741;53.252;5.788;2023-08-31T02:26:45;11.90;99.90
54124;DHT22;55741;53.252;5.788;2023-08-31T02:29:11;11.90;99.90
54124;DHT22;55741;53.252;5.788;2023-08-31T02:31:37;11.90;99.90
54124;DHT22;55741;53.252;5.788;2023-08-31T02:34:03;11.90;99.90
54124;DHT22;55741;53.252;5.788;2023-08-31T02:36:29;11.90;99.90
54124;DHT22;55741;53.252;5.788;2023-08-31T02:38:56;12.00;99.90
54124;DHT22;55741;53.252;5.788;2023-08-31T02:41:21;12.00;99.90
54124;DHT22;55741;53.252;5.788;2023-08-31T02:43:49;11.90;99.90
54124;DHT22;55741;53.252;5.788;2023-08-31T02:46:15;11.90;99.90
54124;DHT22;55741;53.252;5.788;2023-08-31T02:48:41;11.90;99.90
54124;DHT22;55741;53.252;5.788;2023-08-31T02:51:06;12.00;99.90
54124;DHT22;55741;53.252;5.788;2023-08-31T02:53:34;12.00;99.90
54124;DHT22;55741;53.252;5.788;2023-08-31T02:55:59;12.00;99.90
54124;DHT22;55741;53.252;5.788;2023-08-31T02:58:25;12.00;99.90
54124;DHT22;55741;53.252;5.788;2023-08-31T03:00:51;12.00;99.90
54124;DHT22;55741;53.252;5.788;2023-08-31T03:03:37;11.90;99.90
54124;DHT22;55741;53.252;5.788;2023-08-31T03:06:03;11.90;99.90
54124;DHT22;55741;53.252;5.788;2023-08-31T03:08:29;11.90;99.90
54124;DHT22;55741;53.252;5.788;2023-08-31T03:10:56;11.90;99.90
54124;DHT22;55741;53.252;5.788;2023-08-31T03:13:22;11.90;99.90
54124;DHT22;55741;53.252;5.788;2023-08-31T03:16:07;11.90;99.90
54124;DHT22;55741;53.252;5.788;2023-08-31T03:18:33;11.80;99.90
54124;DHT22;55741;53.252;5.788;2023-08-31T03:20:59;11.80;99.90
54124;DHT22;55741;53.252;5.788;2023-08-31T03:23:25;11.70;99.90
54124;DHT22;55741;53.252;5.788;2023-08-31T03:25:51;11.70;99.90
54124;DHT22;55741;53.252;5.788;2023-08-31T03:28:16;11.70;99.90
54124;DHT22;55741;53.252;5.788;2023-08-31T03:31:02;11.70;99.90
54124;DHT22;55741;53.252;5.788;2023-08-31T03:33:28;11.70;99.90
54124;DHT22;55741;53.252;5.788;2023-08-31T03:35:59;11.60;99.90
54124;DHT22;55741;53.252;5.788;2023-08-31T03:38:44;11.60;99.90
54124;DHT22;55741;53.252;5.788;2023-08-31T03:41:10;11.60;99.90
54124;DHT22;55741;53.252;5.788;2023-08-31T03:43:37;11.60;99.90
54124;DHT22;55741;53.252;5.788;2023-08-31T03:46:02;11.60;99.90
54124;DHT22;55741;53.252;5.788;2023-08-31T03:48:28;11.50;99.90
54124;DHT22;55741;53.252;5.788;2023-08-31T03:50:54;11.50;99.90
54124;DHT22;55741;53.252;5.788;2023-08-31T03:53:20;11.50;99.90
54124;DHT22;55741;53.252;5.788;2023-08-31T03:56:07;11.50;99.90
54124;DHT22;55741;53.252;5.788;2023-08-31T03:58:33;11.50;99.90
54124;DHT22;55741;53.252;5.788;2023-08-31T04:01:18;11.40;99.90
54124;DHT22;55741;53.252;5.788;2023-08-31T04:03:44;11.40;99.90
54124;DHT22;55741;53.252;5.788;2023-08-31T04:06:10;11.40;99.90
54124;DHT22;55741;53.252;5.788;2023-08-31T04:08:36;11.40;99.90
54124;DHT22;55741;53.252;5.788;2023-08-31T04:11:01;11.30;99.90
54124;DHT22;55741;53.252;5.788;2023-08-31T04:13:28;11.30;99.90
54124;DHT22;55741;53.252;5.788;2023-08-31T04:15:54;11.30;99.90
54124;DHT22;55741;53.252;5.788;2023-08-31T04:18:20;11.30;99.90
54124;DHT22;55741;53.252;5.788;2023-08-31T04:20:48;11.30;99.90
54124;DHT22;55741;53.252;5.788;2023-08-31T04:23:13;11.20;99.90
54124;DHT22;55741;53.252;5.788;2023-08-31T04:25:39;11.30;99.90
54124;DHT22;55741;53.252;5.788;2023-08-31T04:28:05;11.20;99.90
54124;DHT22;55741;53.252;5.788;2023-08-31T04:30:30;11.20;99.90
54124;DHT22;55741;53.252;5.788;2023-08-31T04:32:56;11.20;99.90
54124;DHT22;55741;53.252;5.788;2023-08-31T04:35:22;11.20;99.90
54124;DHT22;55741;53.252;5.788;2023-08-31T04:37:48;11.20;99.90
54124;DHT22;55741;53.252;5.788;2023-08-31T04:40:13;11.20;99.90
54124;DHT22;55741;53.252;5.788;2023-08-31T04:42:39;11.20;99.90
54124;DHT22;55741;53.252;5.788;2023-08-31T04:45:05;11.10;99.90
54124;DHT22;55741;53.252;5.788;2023-08-31T04:47:31;11.10;99.90
54124;DHT22;55741;53.252;5.788;2023-08-31T04:49:58;11.10;99.90
54124;DHT22;55741;53.252;5.788;2023-08-31T04:52:44;11.20;99.90
54124;DHT22;55741;53.252;5.788;2023-08-31T04:55:12;11.20;99.90
54124;DHT22;55741;53.252;5.788;2023-08-31T04:57:40;11.10;99.90
54124;DHT22;55741;53.252;5.788;2023-08-31T05:00:06;11.10;99.90
54124;DHT22;55741;53.252;5.788;2023-08-31T05:02:34;11.10;99.90
54124;DHT22;55741;53.252;5.788;2023-08-31T05:05:00;11.10;99.90
54124;DHT22;55741;53.252;5.788;2023-08-31T05:07:26;11.10;99.90
54124;DHT22;55741;53.252;5.788;2023-08-31T05:09:51;11.10;99.90
54124;DHT22;55741;53.252;5.788;2023-08-31T05:12:17;11.10;99.90
54124;DHT22;55741;53.252;5.788;2023-08-31T05:14:43;11.20;99.90
54124;DHT22;55741;53.252;5.788;2023-08-31T05:17:09;11.20;99.90
54124;DHT22;55741;53.252;5.788;2023-08-31T05:19:34;11.20;99.90
54124;DHT22;55741;53.252;5.788;2023-08-31T05:22:00;11.20;99.90
54124;DHT22;55741;53.252;5.788;2023-08-31T05:24:26;11.20;99.90
54124;DHT22;55741;53.252;5.788;2023-08-31T05:26:52;11.20;99.90
54124;DHT22;55741;53.252;5.788;2023-08-31T05:29:17;11.20;99.90
54124;DHT22;55741;53.252;5.788;2023-08-31T05:31:43;11.20;99.90
54124;DHT22;55741;53.252;5.788;2023-08-31T05:34:09;11.20;99.90
54124;DHT22;55741;53.252;5.788;2023-08-31T05:36:35;11.20;99.90
54124;DHT22;55741;53.252;5.788;2023-08-31T05:39:01;11.30;99.90
54124;DHT22;55741;53.252;5.788;2023-08-31T05:41:27;11.30;99.90
54124;DHT22;55741;53.252;5.788;2023-08-31T05:43:53;11.30;99.90
54124;DHT22;55741;53.252;5.788;2023-08-31T05:46:19;11.30;99.90
54124;DHT22;55741;53.252;5.788;2023-08-31T05:48:45;11.40;99.90
54124;DHT22;55741;53.252;5.788;2023-08-31T05:51:30;11.40;99.90
54124;DHT22;55741;53.252;5.788;2023-08-31T05:53:56;11.40;99.90
54124;DHT22;55741;53.252;5.788;2023-08-31T05:56:22;11.40;99.90
54124;DHT22;55741;53.252;5.788;2023-08-31T05:58:49;11.50;99.90
54124;DHT22;55741;53.252;5.788;2023-08-31T06:01:15;11.60;99.90
54124;DHT22;55741;53.252;5.788;2023-08-31T06:03:41;11.60;99.90
54124;DHT22;55741;53.252;5.788;2023-08-31T06:06:27;11.70;99.90
54124;DHT22;55741;53.252;5.788;2023-08-31T06:08:52;11.70;99.90
54124;DHT22;55741;53.252;5.788;2023-08-31T06:11:19;11.80;99.90
54124;DHT22;55741;53.252;5.788;2023-08-31T06:13:45;11.80;99.90
54124;DHT22;55741;53.252;5.788;2023-08-31T06:16:11;11.80;99.90
54124;DHT22;55741;53.252;5.788;2023-08-31T06:18:37;11.90;99.90
54124;DHT22;55741;53.252;5.788;2023-08-31T06:21:03;12.00;99.90
54124;DHT22;55741;53.252;5.788;2023-08-31T06:23:48;12.00;99.90
54124;DHT22;55741;53.252;5.788;2023-08-31T06:26:14;12.10;99.90
54124;DHT22;55741;53.252;5.788;2023-08-31T06:28:40;12.20;99.90
54124;DHT22;55741;53.252;5.788;2023-08-31T06:31:05;12.30;99.90
54124;DHT22;55741;53.252;5.788;2023-08-31T06:33:51;12.40;99.90
54124;DHT22;55741;53.252;5.788;2023-08-31T06:36:17;12.50;99.90
54124;DHT22;55741;53.252;5.788;2023-08-31T06:38:43;12.60;99.90
54124;DHT22;55741;53.252;5.788;2023-08-31T06:41:10;12.70;99.90
54124;DHT22;55741;53.252;5.788;2023-08-31T06:43:35;12.90;99.90
54124;DHT22;55741;53.252;5.788;2023-08-31T06:46:01;13.00;99.90
54124;DHT22;55741;53.252;5.788;2023-08-31T06:48:27;13.20;99.90
54124;DHT22;55741;53.252;5.788;2023-08-31T06:50:52;13.30;99.90
54124;DHT22;55741;53.252;5.788;2023-08-31T06:53:18;13.50;99.90
54124;DHT22;55741;53.252;5.788;2023-08-31T06:56:58;13.70;99.90
54124;DHT22;55741;53.252;5.788;2023-08-31T06:59:25;14.00;99.90
54124;DHT22;55741;53.252;5.788;2023-08-31T07:01:51;14.30;99.90
54124;DHT22;55741;53.252;5.788;2023-08-31T07:04:17;14.50;99.90
54124;DHT22;55741;53.252;5.788;2023-08-31T07:06:43;14.80;99.90
54124;DHT22;55741;53.252;5.788;2023-08-31T07:09:08;15.10;99.90
54124;DHT22;55741;53.252;5.788;2023-08-31T07:11:34;15.30;99.90
54124;DHT22;55741;53.252;5.788;2023-08-31T07:14:00;15.50;99.90
54124;DHT22;55741;53.252;5.788;2023-08-31T07:16:26;15.70;99.90
54124;DHT22;55741;53.252;5.788;2023-08-31T07:18:51;15.80;99.90
54124;DHT22;55741;53.252;5.788;2023-08-31T07:21:37;15.70;99.90
54124;DHT22;55741;53.252;5.788;2023-08-31T07:24:03;15.80;99.90
54124;DHT22;55741;53.252;5.788;2023-08-31T07:26:30;15.90;99.90
54124;DHT22;55741;53.252;5.788;2023-08-31T07:28:55;16.10;99.90
54124;DHT22;55741;53.252;5.788;2023-08-31T07:31:21;16.30;99.90
54124;DHT22;55741;53.252;5.788;2023-08-31T07:33:47;16.50;99.90
54124;DHT22;55741;53.252;5.788;2023-08-31T07:36:12;16.70;99.90
54124;DHT22;55741;53.252;5.788;2023-08-31T07:38:38;16.90;99.90
54124;DHT22;55741;53.252;5.788;2023-08-31T07:41:04;17.20;99.90
54124;DHT22;55741;53.252;5.788;2023-08-31T07:43:29;17.40;99.90
54124;DHT22;55741;53.252;5.788;2023-08-31T07:45:55;17.50;99.90
54124;DHT22;55741;53.252;5.788;2023-08-31T07:48:21;17.30;99.90
54124;DHT22;55741;53.252;5.788;2023-08-31T07:50:47;17.00;99.90
54124;DHT22;55741;53.252;5.788;2023-08-31T07:53:14;16.70;99.90
54124;DHT22;55741;53.252;5.788;2023-08-31T07:55:40;16.50;99.90
54124;DHT22;55741;53.252;5.788;2023-08-31T07:58:06;16.30;99.90
54124;DHT22;55741;53.252;5.788;2023-08-31T08:00:33;16.10;99.90
54124;DHT22;55741;53.252;5.788;2023-08-31T08:03:19;15.90;99.90
54124;DHT22;55741;53.252;5.788;2023-08-31T08:06:04;15.70;99.90
54124;DHT22;55741;53.252;5.788;2023-08-31T08:08:50;15.60;99.90
54124;DHT22;55741;53.252;5.788;2023-08-31T08:11:16;15.60;99.90
54124;DHT22;55741;53.252;5.788;2023-08-31T08:13:42;15.80;99.90
54124;DHT22;55741;53.252;5.788;2023-08-31T08:16:07;15.90;99.90
54124;DHT22;55741;53.252;5.788;2023-08-31T08:18:34;16.10;99.90
54124;DHT22;55741;53.252;5.788;2023-08-31T08:21:00;16.30;99.90
54124;DHT22;55741;53.252;5.788;2023-08-31T08:23:25;16.50;99.90
54124;DHT22;55741;53.252;5.788;2023-08-31T08:25:51;16.70;99.90
54124;DHT22;55741;53.252;5.788;2023-08-31T08:28:17;16.90;99.90
54124;DHT22;55741;53.252;5.788;2023-08-31T08:30:42;17.10;99.90
54124;DHT22;55741;53.252;5.788;2023-08-31T08:33:08;17.20;99.90
54124;DHT22;55741;53.252;5.788;2023-08-31T08:35:57;17.20;99.90
54124;DHT22;55741;53.252;5.788;2023-08-31T08:38:23;17.20;99.90
54124;DHT22;55741;53.252;5.788;2023-08-31T08:40:49;17.30;99.90
54124;DHT22;55741;53.252;5.788;2023-08-31T08:43:14;17.50;99.90
54124;DHT22;55741;53.252;5.788;2023-08-31T08:46:04;17.70;99.90
54124;DHT22;55741;53.252;5.788;2023-08-31T08:48:31;17.80;99.90
54124;DHT22;55741;53.252;5.788;2023-08-31T08:50:57;17.60;99.90
54124;DHT22;55741;53.252;5.788;2023-08-31T08:53:23;17.50;99.90
54124;DHT22;55741;53.252;5.788;2023-08-31T08:55:49;17.30;99.90
54124;DHT22;55741;53.252;5.788;2023-08-31T08:58:15;17.20;99.90
54124;DHT22;55741;53.252;5.788;2023-08-31T09:00:42;17.20;99.90
54124;DHT22;55741;53.252;5.788;2023-08-31T09:03:08;17.10;99.90
54124;DHT22;55741;53.252;5.788;2023-08-31T09:05:34;17.00;99.90
54124;DHT22;55741;53.252;5.788;2023-08-31T09:08:00;16.90;99.90
54124;DHT22;55741;53.252;5.788;2023-08-31T09:10:32;16.80;99.90
54124;DHT22;55741;53.252;5.788;2023-08-31T09:12:59;16.70;99.90
54124;DHT22;55741;53.252;5.788;2023-08-31T09:15:25;16.70;99.90
54124;DHT22;55741;53.252;5.788;2023-08-31T09:17:51;16.80;99.90
54124;DHT22;55741;53.252;5.788;2023-08-31T09:20:44;16.80;99.90
54124;DHT22;55741;53.252;5.788;2023-08-31T09:23:30;16.80;99.90
54124;DHT22;55741;53.252;5.788;2023-08-31T09:25:55;17.00;99.90
54124;DHT22;55741;53.252;5.788;2023-08-31T09:28:26;17.30;99.90
54124;DHT22;55741;53.252;5.788;2023-08-31T09:30:52;17.60;99.90
54124;DHT22;55741;53.252;5.788;2023-08-31T09:33:19;17.80;99.90
54124;DHT22;55741;53.252;5.788;2023-08-31T09:38:15;18.30;99.90
54124;DHT22;55741;53.252;5.788;2023-08-31T09:40:40;18.20;99.90
54124;DHT22;55741;53.252;5.788;2023-08-31T09:43:07;18.00;99.90
54124;DHT22;55741;53.252;5.788;2023-08-31T09:45:33;17.80;99.90
54124;DHT22;55741;53.252;5.788;2023-08-31T09:47:59;17.90;99.90
54124;DHT22;55741;53.252;5.788;2023-08-31T09:50:30;18.10;99.90
54124;DHT22;55741;53.252;5.788;2023-08-31T09:52:58;18.20;99.90
54124;DHT22;55741;53.252;5.788;2023-08-31T09:55:27;18.50;99.90
54124;DHT22;55741;53.252;5.788;2023-08-31T09:57:54;18.70;99.90
54124;DHT22;55741;53.252;5.788;2023-08-31T10:00:21;18.80;99.90
54124;DHT22;55741;53.252;5.788;2023-08-31T10:02:49;18.90;99.90
54124;DHT22;55741;53.252;5.788;2023-08-31T10:05:34;19.10;99.90
54124;DHT22;55741;53.252;5.788;2023-08-31T10:08:00;19.20;99.90
54124;DHT22;55741;53.252;5.788;2023-08-31T10:10:27;19.40;99.90
54124;DHT22;55741;53.252;5.788;2023-08-31T10:13:13;19.60;99.90
54124;DHT22;55741;53.252;5.788;2023-08-31T10:15:39;19.70;99.90
54124;DHT22;55741;53.252;5.788;2023-08-31T10:18:06;19.80;99.90
54124;DHT22;55741;53.252;5.788;2023-08-31T10:20:33;19.90;99.90
54124;DHT22;55741;53.252;5.788;2023-08-31T10:23:03;19.90;99.90
54124;DHT22;55741;53.252;5.788;2023-08-31T10:28:38;19.80;99.90
54124;DHT22;55741;53.252;5.788;2023-08-31T10:31:05;19.70;99.90
54124;DHT22;55741;53.252;5.788;2023-08-31T10:33:31;19.80;99.90
54124;DHT22;55741;53.252;5.788;2023-08-31T10:35:57;19.90;99.90
54124;DHT22;55741;53.252;5.788;2023-08-31T10:38:30;19.90;99.90
54124;DHT22;55741;53.252;5.788;2023-08-31T10:40:59;20.00;99.90
54124;DHT22;55741;53.252;5.788;2023-08-31T10:43:25;19.90;99.90
54124;DHT22;55741;53.252;5.788;2023-08-31T10:45:51;19.90;99.90
54124;DHT22;55741;53.252;5.788;2023-08-31T10:48:19;19.90;99.90
54124;DHT22;55741;53.252;5.788;2023-08-31T10:50:46;20.00;99.90
54124;DHT22;55741;53.252;5.788;2023-08-31T10:53:12;20.00;99.90
54124;DHT22;55741;53.252;5.788;2023-08-31T10:55:51;20.10;99.90
54124;DHT22;55741;53.252;5.788;2023-08-31T10:58:18;20.10;99.90
54124;DHT22;55741;53.252;5.788;2023-08-31T11:00:47;20.10;99.90
54124;DHT22;55741;53.252;5.788;2023-08-31T11:03:17;20.20;99.90
54124;DHT22;55741;53.252;5.788;2023-08-31T11:05:52;20.20;99.90
54124;DHT22;55741;53.252;5.788;2023-08-31T11:08:24;20.40;99.90
54124;DHT22;55741;53.252;5.788;2023-08-31T11:10:50;20.50;99.90
54124;DHT22;55741;53.252;5.788;2023-08-31T11:13:18;20.70;99.90
54124;DHT22;55741;53.252;5.788;2023-08-31T11:15:46;20.60;99.90
54124;DHT22;55741;53.252;5.788;2023-08-31T11:18:12;20.50;99.90
54124;DHT22;55741;53.252;5.788;2023-08-31T11:20:41;20.50;99.90
54124;DHT22;55741;53.252;5.788;2023-08-31T11:23:07;20.40;99.90
54124;DHT22;55741;53.252;5.788;2023-08-31T11:25:33;20.30;99.90
54124;DHT22;55741;53.252;5.788;2023-08-31T11:28:03;20.30;99.90
54124;DHT22;55741;53.252;5.788;2023-08-31T11:30:31;20.30;99.90
54124;DHT22;55741;53.252;5.788;2023-08-31T11:32:57;20.50;99.90
54124;DHT22;55741;53.252;5.788;2023-08-31T11:35:30;20.60;99.90
54124;DHT22;55741;53.252;5.788;2023-08-31T11:37:56;20.70;99.90
54124;DHT22;55741;53.252;5.788;2023-08-31T11:40:22;20.80;99.90
54124;DHT22;55741;53.252;5.788;2023-08-31T11:42:48;20.70;99.90
54124;DHT22;55741;53.252;5.788;2023-08-31T11:45:15;20.50;99.90
54124;DHT22;55741;53.252;5.788;2023-08-31T11:47:41;20.50;99.90
54124;DHT22;55741;53.252;5.788;2023-08-31T11:50:28;20.70;99.90
54124;DHT22;55741;53.252;5.788;2023-08-31T11:52:54;21.00;99.90
54124;DHT22;55741;53.252;5.788;2023-08-31T11:55:20;21.10;99.90
54124;DHT22;55741;53.252;5.788;2023-08-31T11:57:50;21.30;99.90
54124;DHT22;55741;53.252;5.788;2023-08-31T12:00:16;21.30;99.90
54124;DHT22;55741;53.252;5.788;2023-08-31T12:02:42;21.10;99.90
54124;DHT22;55741;53.252;5.788;2023-08-31T12:05:09;21.00;99.90
54124;DHT22;55741;53.252;5.788;2023-08-31T12:07:41;20.80;99.90
54124;DHT22;55741;53.252;5.788;2023-08-31T12:10:07;20.70;99.90
54124;DHT22;55741;53.252;5.788;2023-08-31T12:12:33;20.60;99.90
54124;DHT22;55741;53.252;5.788;2023-08-31T12:15:03;20.70;99.90
54124;DHT22;55741;53.252;5.788;2023-08-31T12:17:29;21.00;99.90
54124;DHT22;55741;53.252;5.788;2023-08-31T12:20:04;21.20;99.90
54124;DHT22;55741;53.252;5.788;2023-08-31T12:22:30;21.00;99.90
54124;DHT22;55741;53.252;5.788;2023-08-31T12:24:56;20.60;99.90
54124;DHT22;55741;53.252;5.788;2023-08-31T12:27:22;20.30;99.90
54124;DHT22;55741;53.252;5.788;2023-08-31T12:29:47;20.20;99.90
54124;DHT22;55741;53.252;5.788;2023-08-31T12:32:15;20.30;99.90
54124;DHT22;55741;53.252;5.788;2023-08-31T12:34:40;20.40;99.90
54124;DHT22;55741;53.252;5.788;2023-08-31T12:37:06;20.50;99.90
54124;DHT22;55741;53.252;5.788;2023-08-31T12:39:32;20.70;99.90
54124;DHT22;55741;53.252;5.788;2023-08-31T12:41:58;20.80;99.90
54124;DHT22;55741;53.252;5.788;2023-08-31T12:44:25;20.90;99.90
54124;DHT22;55741;53.252;5.788;2023-08-31T12:46:51;21.10;99.90
54124;DHT22;55741;53.252;5.788;2023-08-31T12:49:17;21.10;99.90
54124;DHT22;55741;53.252;5.788;2023-08-31T12:52:05;21.00;99.90
54124;DHT22;55741;53.252;5.788;2023-08-31T12:54:31;20.80;99.90
54124;DHT22;55741;53.252;5.788;2023-08-31T12:56:57;20.60;99.90
54124;DHT22;55741;53.252;5.788;2023-08-31T12:59:22;20.30;99.90
54124;DHT22;55741;53.252;5.788;2023-08-31T13:01:48;20.20;99.90
54124;DHT22;55741;53.252;5.788;2023-08-31T13:04:14;20.30;99.90
54124;DHT22;55741;53.252;5.788;2023-08-31T13:06:41;20.40;99.90
54124;DHT22;55741;53.252;5.788;2023-08-31T13:09:07;20.70;99.90
54124;DHT22;55741;53.252;5.788;2023-08-31T13:11:34;20.80;99.90
54124;DHT22;55741;53.252;5.788;2023-08-31T13:14:00;20.90;99.90
54124;DHT22;55741;53.252;5.788;2023-08-31T13:16:25;20.80;99.90
54124;DHT22;55741;53.252;5.788;2023-08-31T13:18:51;20.50;99.90
54124;DHT22;55741;53.252;5.788;2023-08-31T13:21:17;20.00;99.90
54124;DHT22;55741;53.252;5.788;2023-08-31T13:23:42;19.50;99.90
54124;DHT22;55741;53.252;5.788;2023-08-31T13:26:09;19.10;99.90
54124;DHT22;55741;53.252;5.788;2023-08-31T13:28:35;18.60;99.90
54124;DHT22;55741;53.252;5.788;2023-08-31T13:31:01;18.40;99.90
54124;DHT22;55741;53.252;5.788;2023-08-31T13:33:27;18.20;99.90
54124;DHT22;55741;53.252;5.788;2023-08-31T13:35:56;18.30;99.90
54124;DHT22;55741;53.252;5.788;2023-08-31T13:38:22;18.30;99.90
54124;DHT22;55741;53.252;5.788;2023-08-31T13:41:08;18.30;99.90
54124;DHT22;55741;53.252;5.788;2023-08-31T13:43:34;18.40;99.90
54124;DHT22;55741;53.252;5.788;2023-08-31T13:45:59;18.40;99.90
54124;DHT22;55741;53.252;5.788;2023-08-31T13:48:25;18.40;99.90
54124;DHT22;55741;53.252;5.788;2023-08-31T13:50:51;18.50;99.90
54124;DHT22;55741;53.252;5.788;2023-08-31T13:53:16;18.70;99.90
54124;DHT22;55741;53.252;5.788;2023-08-31T13:55:42;19.00;99.90
54124;DHT22;55741;53.252;5.788;2023-08-31T13:58:08;19.30;99.90
54124;DHT22;55741;53.252;5.788;2023-08-31T14:00:34;19.60;99.90
54124;DHT22;55741;53.252;5.788;2023-08-31T14:03:00;19.80;99.90
54124;DHT22;55741;53.252;5.788;2023-08-31T14:05:31;19.90;99.90
54124;DHT22;55741;53.252;5.788;2023-08-31T14:07:59;20.00;99.90
54124;DHT22;55741;53.252;5.788;2023-08-31T14:10:46;20.10;99.90
54124;DHT22;55741;53.252;5.788;2023-08-31T14:13:12;20.20;99.90
54124;DHT22;55741;53.252;5.788;2023-08-31T14:15:38;20.10;99.90
54124;DHT22;55741;53.252;5.788;2023-08-31T14:18:11;20.10;99.90
54124;DHT22;55741;53.252;5.788;2023-08-31T14:20:37;20.10;99.90
54124;DHT22;55741;53.252;5.788;2023-08-31T14:23:03;20.20;99.90
54124;DHT22;55741;53.252;5.788;2023-08-31T14:25:33;20.30;99.90
54124;DHT22;55741;53.252;5.788;2023-08-31T14:27:59;20.30;99.90
54124;DHT22;55741;53.252;5.788;2023-08-31T14:30:24;20.40;99.90
54124;DHT22;55741;53.252;5.788;2023-08-31T14:32:50;20.20;99.90
54124;DHT22;55741;53.252;5.788;2023-08-31T14:35:16;20.10;99.90
54124;DHT22;55741;53.252;5.788;2023-08-31T14:37:42;19.90;99.90
54124;DHT22;55741;53.252;5.788;2023-08-31T14:40:07;19.60;99.90
54124;DHT22;55741;53.252;5.788;2023-08-31T14:42:33;19.30;99.90
54124;DHT22;55741;53.252;5.788;2023-08-31T14:44:59;19.20;99.90
54124;DHT22;55741;53.252;5.788;2023-08-31T14:47:25;19.10;99.90
54124;DHT22;55741;53.252;5.788;2023-08-31T14:49:50;19.10;99.90
54124;DHT22;55741;53.252;5.788;2023-08-31T14:52:16;19.10;99.90
54124;DHT22;55741;53.252;5.788;2023-08-31T14:54:42;19.10;99.90
54124;DHT22;55741;53.252;5.788;2023-08-31T14:57:07;19.10;99.90
54124;DHT22;55741;53.252;5.788;2023-08-31T14:59:53;19.20;99.90
54124;DHT22;55741;53.252;5.788;2023-08-31T15:02:19;19.10;99.90
54124;DHT22;55741;53.252;5.788;2023-08-31T15:04:50;19.10;99.90
54124;DHT22;55741;53.252;5.788;2023-08-31T15:07:16;19.10;99.90
54124;DHT22;55741;53.252;5.788;2023-08-31T15:09:44;19.20;99.90
54124;DHT22;55741;53.252;5.788;2023-08-31T15:12:10;19.30;99.90
54124;DHT22;55741;53.252;5.788;2023-08-31T15:14:37;19.40;99.90
54124;DHT22;55741;53.252;5.788;2023-08-31T15:17:04;19.30;99.90
54124;DHT22;55741;53.252;5.788;2023-08-31T15:19:30;19.10;99.90
54124;DHT22;55741;53.252;5.788;2023-08-31T15:21:58;18.80;99.90
54124;DHT22;55741;53.252;5.788;2023-08-31T15:24:23;18.60;99.90
54124;DHT22;55741;53.252;5.788;2023-08-31T15:26:49;18.40;99.90
54124;DHT22;55741;53.252;5.788;2023-08-31T15:29:35;18.20;99.90
54124;DHT22;55741;53.252;5.788;2023-08-31T15:32:01;18.10;99.90
54124;DHT22;55741;53.252;5.788;2023-08-31T15:34:26;17.90;99.90
54124;DHT22;55741;53.252;5.788;2023-08-31T15:36:52;17.70;99.90
54124;DHT22;55741;53.252;5.788;2023-08-31T15:39:18;17.70;99.90
54124;DHT22;55741;53.252;5.788;2023-08-31T15:41:44;17.70;99.90
54124;DHT22;55741;53.252;5.788;2023-08-31T15:44:10;17.70;99.90
54124;DHT22;55741;53.252;5.788;2023-08-31T15:46:36;17.70;99.90
54124;DHT22;55741;53.252;5.788;2023-08-31T15:49:01;17.80;99.90